Terminal Aerodrome Forecast
Issued by NWS

Home | Current Version | Previous Version | Text Only | Print | Product List | Glossary On
Versions: 1 2 3 4 5 6 7 8 9 10 11 12 13 14 15
000
FTAK31 PAJN 290500
TAFAJN
TAF
PAJN 290540Z 2906/3006 10008KT P6SM -SHRA FEW025 BKN040 BKN050
      TEMPO 2906/2910 VRB05KT 6SM -SHRA BR FEW010 OVC030
     FM292100 13008G18KT 6SM -SHRA BR BKN025 OVC035
     FM300000 24010KT P6SM VCSH BKN035 BKN050=

USA.gov is the U.S. government's official web portal to all federal, state and local government web resources and services.